<?xml version="1.0" encoding="UTF-8" standalone="no" ?>
<gpx xmlns="http://www.topografix.com/GPX/1/1" xmlns:xsi="http://www.w3.org/2001/XMLSchema-instance" xsi:schemaLocation="http://www.topografix.com/GPX/1/1 http://www.topografix.com/GPX/1/1/gpx.xsd" version="1.1" creator="VisuGPX - https://www.visugpx.com">
  <metadata>
    <name>Rando LN</name>
  </metadata>
  <trk>
    <name><![CDATA[Montredon]]></name>
    <extensions>
      <line xmlns="http://www.topografix.com/GPX/gpx_style/0/2">
        <color>00ff2a</color>
        <width>4</width>
      </line>
    </extensions>
    <trkseg>
      <trkpt lat="44.60738" lon="2.03107">
        <ele>192.651</ele>
        <time>2020-03-06T17:26:17Z</time>
      </trkpt>
      <trkpt lat="44.60738" lon="2.03107">
        <ele>192.651</ele>
        <time>2020-03-06T17:26:17Z</time>
      </trkpt>
      <trkpt lat="44.60738" lon="2.03107">
        <ele>192.651</ele>
        <time>2020-03-06T17:26:17Z</time>
      </trkpt>
      <trkpt lat="44.60738" lon="2.03107">
        <ele>192.651</ele>
        <time>2020-03-06T17:26:17Z</time>
      </trkpt>
      <trkpt lat="44.60738" lon="2.03107">
        <ele>192.651</ele>
        <time>2020-03-06T17:26:17Z</time>
      </trkpt>
      <trkpt lat="44.60738" lon="2.03107">
        <ele>192.651</ele>
        <time>2020-03-06T17:26:17Z</time>
      </trkpt>
      <trkpt lat="44.60738" lon="2.03107">
        <ele>192.651</ele>
        <time>2020-03-06T17:26:17Z</time>
      </trkpt>
      <trkpt lat="44.60708" lon="2.03324">
        <ele>198.767</ele>
        <time>2020-03-06T17:26:37Z</time>
      </trkpt>
      <trkpt lat="44.60709" lon="2.03388">
        <ele>200.519</ele>
        <time>2020-03-06T17:26:57Z</time>
      </trkpt>
      <trkpt lat="44.60655" lon="2.03399">
        <ele>198.429</ele>
        <time>2020-11-25T21:15:20Z</time>
      </trkpt>
      <trkpt lat="44.60672" lon="2.03552">
        <ele>198.6</ele>
        <time>2020-11-25T21:15:40Z</time>
      </trkpt>
      <trkpt lat="44.60669" lon="2.03596">
        <ele>198.82</ele>
        <time>2020-11-25T21:16:00Z</time>
      </trkpt>
      <trkpt lat="44.6065" lon="2.03645">
        <ele>199.908</ele>
        <time>2020-11-25T21:16:20Z</time>
      </trkpt>
      <trkpt lat="44.60715" lon="2.0431">
        <ele>206.188</ele>
        <time>2020-11-25T21:16:40Z</time>
      </trkpt>
      <trkpt lat="44.60746" lon="2.04466">
        <ele>204.913</ele>
        <time>2020-11-25T21:17:00Z</time>
      </trkpt>
      <trkpt lat="44.6078" lon="2.04743">
        <ele>207.173</ele>
        <time>2020-11-25T21:17:20Z</time>
      </trkpt>
      <trkpt lat="44.60813" lon="2.04817">
        <ele>203.595</ele>
        <time>2020-11-25T21:17:40Z</time>
      </trkpt>
      <trkpt lat="44.6089" lon="2.04956">
        <ele>200.147</ele>
        <time>2020-11-25T21:18:00Z</time>
      </trkpt>
      <trkpt lat="44.60898" lon="2.0499">
        <ele>204.368</ele>
        <time>2020-11-25T21:18:20Z</time>
      </trkpt>
      <trkpt lat="44.60917" lon="2.05013">
        <ele>204.934</ele>
        <time>2020-11-25T21:18:40Z</time>
      </trkpt>
      <trkpt lat="44.60919" lon="2.05068">
        <ele>205.676</ele>
        <time>2020-11-25T21:19:00Z</time>
      </trkpt>
      <trkpt lat="44.60954" lon="2.051">
        <ele>207.633</ele>
        <time>2020-11-25T21:19:20Z</time>
      </trkpt>
      <trkpt lat="44.60993" lon="2.05084">
        <ele>207.823</ele>
        <time>2020-11-25T21:19:40Z</time>
      </trkpt>
      <trkpt lat="44.60976" lon="2.05138">
        <ele>212.515</ele>
        <time>2020-11-25T21:20:00Z</time>
      </trkpt>
      <trkpt lat="44.60977" lon="2.05196">
        <ele>218.408</ele>
        <time>2020-11-25T21:20:20Z</time>
      </trkpt>
      <trkpt lat="44.60993" lon="2.05266">
        <ele>230.099</ele>
        <time>2020-11-25T21:20:40Z</time>
      </trkpt>
      <trkpt lat="44.60986" lon="2.05352">
        <ele>241.634</ele>
        <time>2020-11-25T21:21:00Z</time>
      </trkpt>
      <trkpt lat="44.61028" lon="2.05535">
        <ele>269.384</ele>
        <time>2020-11-25T21:21:20Z</time>
      </trkpt>
      <trkpt lat="44.61037" lon="2.05562">
        <ele>271.686</ele>
        <time>2020-11-25T21:21:40Z</time>
      </trkpt>
      <trkpt lat="44.61043" lon="2.05604">
        <ele>273.918</ele>
        <time>2020-11-25T21:22:00Z</time>
      </trkpt>
      <trkpt lat="44.6104" lon="2.05697">
        <ele>278.699</ele>
        <time>2020-11-25T21:22:20Z</time>
      </trkpt>
      <trkpt lat="44.61065" lon="2.05801">
        <ele>294.485</ele>
        <time>2020-11-25T21:22:40Z</time>
      </trkpt>
      <trkpt lat="44.61066" lon="2.05907">
        <ele>298.617</ele>
        <time>2020-11-25T21:23:00Z</time>
      </trkpt>
      <trkpt lat="44.61034" lon="2.06118">
        <ele>307.568</ele>
        <time>2020-11-25T21:23:20Z</time>
      </trkpt>
      <trkpt lat="44.61052" lon="2.06229">
        <ele>313.642</ele>
        <time>2020-11-25T21:23:40Z</time>
      </trkpt>
      <trkpt lat="44.61063" lon="2.06326">
        <ele>320.326</ele>
        <time>2020-11-25T21:24:00Z</time>
      </trkpt>
      <trkpt lat="44.61093" lon="2.06473">
        <ele>328.008</ele>
        <time>2020-11-25T21:24:20Z</time>
      </trkpt>
      <trkpt lat="44.61082" lon="2.06759">
        <ele>336.312</ele>
        <time>2020-11-25T21:24:40Z</time>
      </trkpt>
      <trkpt lat="44.6106" lon="2.07071">
        <ele>361.097</ele>
        <time>2020-11-25T21:25:00Z</time>
      </trkpt>
      <trkpt lat="44.6103" lon="2.0719">
        <ele>363.147</ele>
        <time>2020-11-25T21:25:20Z</time>
      </trkpt>
      <trkpt lat="44.61006" lon="2.07237">
        <ele>362.549</ele>
        <time>2020-11-25T21:25:40Z</time>
      </trkpt>
      <trkpt lat="44.61005" lon="2.07281">
        <ele>362.311</ele>
        <time>2020-11-25T21:26:00Z</time>
      </trkpt>
      <trkpt lat="44.61036" lon="2.07556">
        <ele>371.792</ele>
        <time>2020-11-25T21:26:20Z</time>
      </trkpt>
      <trkpt lat="44.61036" lon="2.07637">
        <ele>376.398</ele>
        <time>2020-11-25T21:26:40Z</time>
      </trkpt>
      <trkpt lat="44.61179" lon="2.07845">
        <ele>379.02</ele>
        <time>2020-11-25T21:27:00Z</time>
      </trkpt>
      <trkpt lat="44.61218" lon="2.07881">
        <ele>379.835</ele>
        <time>2020-11-25T21:27:20Z</time>
      </trkpt>
      <trkpt lat="44.6124" lon="2.07915">
        <ele>379.786</ele>
        <time>2020-11-25T21:27:40Z</time>
      </trkpt>
      <trkpt lat="44.61128" lon="2.07945">
        <ele>377.614</ele>
        <time>2020-11-25T21:28:00Z</time>
      </trkpt>
      <trkpt lat="44.61134" lon="2.08007">
        <ele>375.508</ele>
        <time>2015-08-05T10:24:07Z</time>
      </trkpt>
      <trkpt lat="44.61215" lon="2.08148">
        <ele>373.679</ele>
        <time>2015-08-05T10:24:27Z</time>
      </trkpt>
      <trkpt lat="44.61226" lon="2.08191">
        <ele>375.284</ele>
        <time>2015-08-05T10:24:47Z</time>
      </trkpt>
      <trkpt lat="44.61217" lon="2.08248">
        <ele>377.054</ele>
        <time>2015-08-05T10:25:07Z</time>
      </trkpt>
      <trkpt lat="44.61198" lon="2.08325">
        <ele>376.416</ele>
        <time>2015-08-05T10:25:27Z</time>
      </trkpt>
      <trkpt lat="44.61188" lon="2.08445">
        <ele>380.898</ele>
        <time>2015-08-05T10:25:47Z</time>
      </trkpt>
      <trkpt lat="44.61198" lon="2.08512">
        <ele>378.969</ele>
        <time>2015-08-05T10:26:07Z</time>
      </trkpt>
      <trkpt lat="44.61216" lon="2.08536">
        <ele>378.965</ele>
        <time>2015-08-05T10:26:27Z</time>
      </trkpt>
      <trkpt lat="44.6121" lon="2.0858">
        <ele>377.397</ele>
        <time>2015-08-05T10:26:47Z</time>
      </trkpt>
      <trkpt lat="44.61173" lon="2.08633">
        <ele>373.548</ele>
        <time>2015-08-05T10:27:07Z</time>
      </trkpt>
      <trkpt lat="44.61155" lon="2.08671">
        <ele>372.761</ele>
        <time>2015-08-05T10:27:27Z</time>
      </trkpt>
      <trkpt lat="44.61235" lon="2.08691">
        <ele>380.017</ele>
        <time>2015-08-05T10:27:47Z</time>
      </trkpt>
      <trkpt lat="44.61295" lon="2.08694">
        <ele>379.808</ele>
        <time>2015-08-05T10:28:07Z</time>
      </trkpt>
      <trkpt lat="44.6132" lon="2.08734">
        <ele>378.39</ele>
        <time>2015-08-05T10:28:27Z</time>
      </trkpt>
      <trkpt lat="44.61386" lon="2.08695">
        <ele>382.755</ele>
        <time>2015-08-05T10:28:47Z</time>
      </trkpt>
      <trkpt lat="44.61399" lon="2.0874">
        <ele>380.045</ele>
        <time>2015-08-05T10:29:07Z</time>
      </trkpt>
      <trkpt lat="44.61424" lon="2.08867">
        <ele>383.097</ele>
        <time>2015-08-05T10:29:27Z</time>
      </trkpt>
      <trkpt lat="44.61434" lon="2.0889">
        <ele>384.069</ele>
        <time>2015-08-05T10:29:47Z</time>
      </trkpt>
      <trkpt lat="44.61452" lon="2.08904">
        <ele>384.81</ele>
        <time>2015-08-05T10:30:07Z</time>
      </trkpt>
      <trkpt lat="44.61513" lon="2.08995">
        <ele>377.746</ele>
        <time>2015-08-05T10:30:27Z</time>
      </trkpt>
      <trkpt lat="44.61517" lon="2.09026">
        <ele>375.168</ele>
        <time>2015-08-05T10:30:47Z</time>
      </trkpt>
      <trkpt lat="44.6147" lon="2.09591">
        <ele>363.093</ele>
        <time>2015-08-05T10:31:07Z</time>
      </trkpt>
      <trkpt lat="44.61482" lon="2.09642">
        <ele>358.865</ele>
        <time>2015-08-05T10:31:27Z</time>
      </trkpt>
      <trkpt lat="44.61655" lon="2.09886">
        <ele>349.121</ele>
        <time>2015-08-05T10:31:47Z</time>
      </trkpt>
      <trkpt lat="44.61745" lon="2.10085">
        <ele>343.908</ele>
        <time>2015-08-05T10:32:07Z</time>
      </trkpt>
      <trkpt lat="44.61774" lon="2.10188">
        <ele>342.855</ele>
        <time>2015-08-05T10:32:27Z</time>
      </trkpt>
      <trkpt lat="44.61839" lon="2.10453">
        <ele>340.72</ele>
        <time>2015-08-05T10:32:47Z</time>
      </trkpt>
      <trkpt lat="44.61939" lon="2.10596">
        <ele>350.35</ele>
        <time>2015-08-05T10:33:07Z</time>
      </trkpt>
      <trkpt lat="44.62" lon="2.10757">
        <ele>343.292</ele>
        <time>2015-08-05T10:33:27Z</time>
      </trkpt>
      <trkpt lat="44.61875" lon="2.10833">
        <ele>340.524</ele>
        <time>2015-08-05T10:33:47Z</time>
      </trkpt>
      <trkpt lat="44.61733" lon="2.10835">
        <ele>342.675</ele>
        <time>2020-03-06T18:01:17Z</time>
      </trkpt>
      <trkpt lat="44.61645" lon="2.10979">
        <ele>341.351</ele>
        <time>2015-08-05T10:34:27Z</time>
      </trkpt>
      <trkpt lat="44.61635" lon="2.10978">
        <ele>341.763</ele>
        <time>2015-08-05T10:34:47Z</time>
      </trkpt>
      <trkpt lat="44.6151" lon="2.11059">
        <ele>338.062</ele>
        <time>2015-08-05T10:35:07Z</time>
      </trkpt>
      <trkpt lat="44.61447" lon="2.1111">
        <ele>329.383</ele>
        <time>2015-08-05T10:35:27Z</time>
      </trkpt>
      <trkpt lat="44.61252" lon="2.11235">
        <ele>312.611</ele>
        <time>2015-08-05T10:35:47Z</time>
      </trkpt>
      <trkpt lat="44.61223" lon="2.1123">
        <ele>311.708</ele>
        <time>2015-08-05T10:36:07Z</time>
      </trkpt>
      <trkpt lat="44.61189" lon="2.11314">
        <ele>308.992</ele>
        <time>2015-08-05T10:36:27Z</time>
      </trkpt>
      <trkpt lat="44.61155" lon="2.11356">
        <ele>306.287</ele>
        <time>2015-08-05T10:36:47Z</time>
      </trkpt>
      <trkpt lat="44.61041" lon="2.11521">
        <ele>292.597</ele>
        <time>2015-08-05T10:37:07Z</time>
      </trkpt>
      <trkpt lat="44.60996" lon="2.1159">
        <ele>288.599</ele>
        <time>2015-08-05T10:37:27Z</time>
      </trkpt>
      <trkpt lat="44.60959" lon="2.11674">
        <ele>290.611</ele>
        <time>2015-08-05T10:37:47Z</time>
      </trkpt>
      <trkpt lat="44.60953" lon="2.11745">
        <ele>296.942</ele>
        <time>2015-08-05T10:38:07Z</time>
      </trkpt>
      <trkpt lat="44.60977" lon="2.11845">
        <ele>294.818</ele>
        <time>2015-08-05T10:38:27Z</time>
      </trkpt>
      <trkpt lat="44.60993" lon="2.1183">
        <ele>292.27</ele>
        <time>2015-08-05T10:38:47Z</time>
      </trkpt>
      <trkpt lat="44.61045" lon="2.11818">
        <ele>285.095</ele>
        <time>2015-08-05T10:39:07Z</time>
      </trkpt>
      <trkpt lat="44.61075" lon="2.11793">
        <ele>283.349</ele>
        <time>2015-08-05T10:39:27Z</time>
      </trkpt>
      <trkpt lat="44.61124" lon="2.11806">
        <ele>282.523</ele>
        <time>2015-08-05T10:39:47Z</time>
      </trkpt>
      <trkpt lat="44.6114" lon="2.11889">
        <ele>278.908</ele>
        <time>2015-08-05T10:40:07Z</time>
      </trkpt>
      <trkpt lat="44.61168" lon="2.11989">
        <ele>277.765</ele>
        <time>2020-11-25T21:44:40Z</time>
      </trkpt>
      <trkpt lat="44.61217" lon="2.11957">
        <ele>273.74</ele>
        <time>2020-11-25T21:45:00Z</time>
      </trkpt>
      <trkpt lat="44.61243" lon="2.11972">
        <ele>272.59</ele>
        <time>2020-11-25T21:45:20Z</time>
      </trkpt>
      <trkpt lat="44.61359" lon="2.11832">
        <ele>282.032</ele>
        <time>2020-11-25T21:45:40Z</time>
      </trkpt>
      <trkpt lat="44.61477" lon="2.11895">
        <ele>290.054</ele>
        <time>2020-11-25T21:46:00Z</time>
      </trkpt>
      <trkpt lat="44.61506" lon="2.11897">
        <ele>289.765</ele>
        <time>2020-11-25T21:46:20Z</time>
      </trkpt>
      <trkpt lat="44.61552" lon="2.12152">
        <ele>277.621</ele>
        <time>2020-11-25T21:46:40Z</time>
      </trkpt>
      <trkpt lat="44.61659" lon="2.12292">
        <ele>286.023</ele>
        <time>2020-11-25T21:47:00Z</time>
      </trkpt>
      <trkpt lat="44.61704" lon="2.12337">
        <ele>286.885</ele>
        <time>2020-11-25T21:47:20Z</time>
      </trkpt>
      <trkpt lat="44.61756" lon="2.12358">
        <ele>284.489</ele>
        <time>2020-11-25T21:47:40Z</time>
      </trkpt>
      <trkpt lat="44.61813" lon="2.12452">
        <ele>288.717</ele>
        <time>2020-11-25T21:48:00Z</time>
      </trkpt>
      <trkpt lat="44.61839" lon="2.12455">
        <ele>289.408</ele>
        <time>2020-11-25T21:48:20Z</time>
      </trkpt>
      <trkpt lat="44.61914" lon="2.12442">
        <ele>285.924</ele>
        <time>2020-11-25T21:48:40Z</time>
      </trkpt>
      <trkpt lat="44.61969" lon="2.12489">
        <ele>285.339</ele>
        <time>2020-11-25T21:49:00Z</time>
      </trkpt>
      <trkpt lat="44.62014" lon="2.12663">
        <ele>277.749</ele>
        <time>2020-11-25T21:49:20Z</time>
      </trkpt>
      <trkpt lat="44.6206" lon="2.12667">
        <ele>276.981</ele>
        <time>2020-11-25T21:49:40Z</time>
      </trkpt>
      <trkpt lat="44.62108" lon="2.12701">
        <ele>267.613</ele>
        <time>2020-11-25T21:50:00Z</time>
      </trkpt>
      <trkpt lat="44.62265" lon="2.12706">
        <ele>278.634</ele>
        <time>2020-11-25T21:50:20Z</time>
      </trkpt>
      <trkpt lat="44.6227" lon="2.1269">
        <ele>279.07</ele>
        <time>2020-11-25T21:50:40Z</time>
      </trkpt>
      <trkpt lat="44.62295" lon="2.12696">
        <ele>279.082</ele>
        <time>2020-11-25T21:51:00Z</time>
      </trkpt>
      <trkpt lat="44.6232" lon="2.12665">
        <ele>279.617</ele>
        <time>2020-11-25T21:51:20Z</time>
      </trkpt>
      <trkpt lat="44.62346" lon="2.12655">
        <ele>278.187</ele>
        <time>2020-11-25T21:51:40Z</time>
      </trkpt>
      <trkpt lat="44.62355" lon="2.12744">
        <ele>277.015</ele>
        <time>2020-11-25T21:52:00Z</time>
      </trkpt>
      <trkpt lat="44.6235" lon="2.13127">
        <ele>261.708</ele>
        <time>2020-11-25T21:52:20Z</time>
      </trkpt>
      <trkpt lat="44.62329" lon="2.13294">
        <ele>254.417</ele>
        <time>2020-11-25T21:52:40Z</time>
      </trkpt>
      <trkpt lat="44.62332" lon="2.13389">
        <ele>254.932</ele>
        <time>2020-11-25T21:53:00Z</time>
      </trkpt>
      <trkpt lat="44.62351" lon="2.13452">
        <ele>253.372</ele>
        <time>2020-11-25T21:53:20Z</time>
      </trkpt>
      <trkpt lat="44.62382" lon="2.13501">
        <ele>252.624</ele>
        <time>2020-11-25T21:53:40Z</time>
      </trkpt>
      <trkpt lat="44.62406" lon="2.13612">
        <ele>254.236</ele>
        <time>2020-11-25T21:54:00Z</time>
      </trkpt>
      <trkpt lat="44.62458" lon="2.13739">
        <ele>248.737</ele>
        <time>2015-08-05T10:53:27Z</time>
      </trkpt>
      <trkpt lat="44.62458" lon="2.13739">
        <ele>248.783</ele>
        <time>2015-08-05T10:53:27Z</time>
      </trkpt>
      <trkpt lat="44.62497" lon="2.13887">
        <ele>250.045</ele>
        <time>2015-08-05T10:53:47Z</time>
      </trkpt>
      <trkpt lat="44.62521" lon="2.14019">
        <ele>256.612</ele>
        <time>2015-08-05T10:54:07Z</time>
      </trkpt>
      <trkpt lat="44.62524" lon="2.14055">
        <ele>258.132</ele>
        <time>2015-08-05T10:54:27Z</time>
      </trkpt>
      <trkpt lat="44.62538" lon="2.14109">
        <ele>257.105</ele>
        <time>2015-08-05T10:54:47Z</time>
      </trkpt>
      <trkpt lat="44.62544" lon="2.14183">
        <ele>254.408</ele>
        <time>2015-08-05T10:55:07Z</time>
      </trkpt>
      <trkpt lat="44.62593" lon="2.14265">
        <ele>246.327</ele>
        <time>2015-08-05T10:55:27Z</time>
      </trkpt>
      <trkpt lat="44.62624" lon="2.14379">
        <ele>243.752</ele>
        <time>2015-08-05T10:55:47Z</time>
      </trkpt>
      <trkpt lat="44.62608" lon="2.14462">
        <ele>248.522</ele>
        <time>2015-08-05T10:56:07Z</time>
      </trkpt>
      <trkpt lat="44.62593" lon="2.1474">
        <ele>266.824</ele>
        <time>2015-08-05T10:56:27Z</time>
      </trkpt>
      <trkpt lat="44.62559" lon="2.14843">
        <ele>274.436</ele>
        <time>2015-08-05T10:56:47Z</time>
      </trkpt>
      <trkpt lat="44.62579" lon="2.14968">
        <ele>279.217</ele>
        <time>2015-08-05T10:57:07Z</time>
      </trkpt>
      <trkpt lat="44.62576" lon="2.15007">
        <ele>280.923</ele>
        <time>2015-08-05T10:57:27Z</time>
      </trkpt>
      <trkpt lat="44.6256" lon="2.14986">
        <ele>281.165</ele>
        <time>2015-08-05T10:57:47Z</time>
      </trkpt>
      <trkpt lat="44.62418" lon="2.14947">
        <ele>277.118</ele>
        <time>2015-08-05T10:58:07Z</time>
      </trkpt>
      <trkpt lat="44.62286" lon="2.14818">
        <ele>277.498</ele>
        <time>2015-08-05T10:58:27Z</time>
      </trkpt>
      <trkpt lat="44.62223" lon="2.14802">
        <ele>270.717</ele>
        <time>2015-08-05T10:58:47Z</time>
      </trkpt>
      <trkpt lat="44.6219" lon="2.14752">
        <ele>262.408</ele>
        <time>2015-08-05T10:59:07Z</time>
      </trkpt>
      <trkpt lat="44.62176" lon="2.14797">
        <ele>265.527</ele>
        <time>2015-08-05T10:59:27Z</time>
      </trkpt>
      <trkpt lat="44.62162" lon="2.14895">
        <ele>271.592</ele>
        <time>2015-08-05T10:59:47Z</time>
      </trkpt>
      <trkpt lat="44.6213" lon="2.15023">
        <ele>277.352</ele>
        <time>2015-08-05T11:00:07Z</time>
      </trkpt>
      <trkpt lat="44.6213" lon="2.15068">
        <ele>281.264</ele>
        <time>2015-08-05T11:00:27Z</time>
      </trkpt>
      <trkpt lat="44.62096" lon="2.15146">
        <ele>285.576</ele>
        <time>2015-08-05T11:00:47Z</time>
      </trkpt>
      <trkpt lat="44.62056" lon="2.15231">
        <ele>285.337</ele>
        <time>2015-08-05T11:01:07Z</time>
      </trkpt>
      <trkpt lat="44.62021" lon="2.15287">
        <ele>288.883</ele>
        <time>2015-08-05T11:01:27Z</time>
      </trkpt>
      <trkpt lat="44.62021" lon="2.15616">
        <ele>285.945</ele>
        <time>2015-08-05T11:01:47Z</time>
      </trkpt>
      <trkpt lat="44.61998" lon="2.1576">
        <ele>278.646</ele>
        <time>2015-08-05T11:02:07Z</time>
      </trkpt>
      <trkpt lat="44.61963" lon="2.15918">
        <ele>280.188</ele>
        <time>2015-08-05T11:02:27Z</time>
      </trkpt>
      <trkpt lat="44.61933" lon="2.15939">
        <ele>283.016</ele>
        <time>2015-08-05T11:02:47Z</time>
      </trkpt>
      <trkpt lat="44.61839" lon="2.16032">
        <ele>285.408</ele>
        <time>2015-08-05T11:03:07Z</time>
      </trkpt>
      <trkpt lat="44.61797" lon="2.16056">
        <ele>285.45</ele>
        <time>2015-08-05T11:03:27Z</time>
      </trkpt>
      <trkpt lat="44.61796" lon="2.16093">
        <ele>286.045</ele>
        <time>2015-08-05T11:03:47Z</time>
      </trkpt>
      <trkpt lat="44.61711" lon="2.16168">
        <ele>286.165</ele>
        <time>2015-08-05T11:04:07Z</time>
      </trkpt>
      <trkpt lat="44.61678" lon="2.16205">
        <ele>290.897</ele>
        <time>2015-08-05T11:04:27Z</time>
      </trkpt>
      <trkpt lat="44.61641" lon="2.16243">
        <ele>292.119</ele>
        <time>2015-08-05T11:04:47Z</time>
      </trkpt>
      <trkpt lat="44.61626" lon="2.16205">
        <ele>289.31</ele>
        <time>2015-08-05T11:05:07Z</time>
      </trkpt>
      <trkpt lat="44.61594" lon="2.16147">
        <ele>285.116</ele>
        <time>2015-08-05T11:05:27Z</time>
      </trkpt>
      <trkpt lat="44.61564" lon="2.1617">
        <ele>286.188</ele>
        <time>2015-08-05T11:05:47Z</time>
      </trkpt>
      <trkpt lat="44.61493" lon="2.16261">
        <ele>284.358</ele>
        <time>2015-08-05T11:06:07Z</time>
      </trkpt>
      <trkpt lat="44.61401" lon="2.16271">
        <ele>276.652</ele>
        <time>2015-08-05T11:06:27Z</time>
      </trkpt>
      <trkpt lat="44.61393" lon="2.16313">
        <ele>275.417</ele>
        <time>2015-08-05T11:06:47Z</time>
      </trkpt>
      <trkpt lat="44.61371" lon="2.16357">
        <ele>277.208</ele>
        <time>2020-03-06T18:34:17Z</time>
      </trkpt>
      <trkpt lat="44.61392" lon="2.16431">
        <ele>281.131</ele>
        <time>2015-08-05T11:07:47Z</time>
      </trkpt>
      <trkpt lat="44.61453" lon="2.16394">
        <ele>283.746</ele>
        <time>2015-08-05T11:08:07Z</time>
      </trkpt>
      <trkpt lat="44.61511" lon="2.16387">
        <ele>288.326</ele>
        <time>2015-08-05T11:08:27Z</time>
      </trkpt>
      <trkpt lat="44.61589" lon="2.16396">
        <ele>287.488</ele>
        <time>2015-08-05T11:08:47Z</time>
      </trkpt>
      <trkpt lat="44.61611" lon="2.16453">
        <ele>296.99</ele>
        <time>2015-08-05T11:09:07Z</time>
      </trkpt>
      <trkpt lat="44.61608" lon="2.16488">
        <ele>301.781</ele>
        <time>2015-08-05T11:09:27Z</time>
      </trkpt>
      <trkpt lat="44.61633" lon="2.1653">
        <ele>309.117</ele>
        <time>2015-08-05T11:09:47Z</time>
      </trkpt>
      <trkpt lat="44.61678" lon="2.16677">
        <ele>325.219</ele>
        <time>2015-08-05T11:10:07Z</time>
      </trkpt>
      <trkpt lat="44.61686" lon="2.16838">
        <ele>341.446</ele>
        <time>2015-08-05T11:10:27Z</time>
      </trkpt>
      <trkpt lat="44.61697" lon="2.16858">
        <ele>341.088</ele>
        <time>2015-08-05T11:10:47Z</time>
      </trkpt>
      <trkpt lat="44.61732" lon="2.16842">
        <ele>340.416</ele>
        <time>2015-08-05T11:11:07Z</time>
      </trkpt>
      <trkpt lat="44.61752" lon="2.16821">
        <ele>339.408</ele>
        <time>2015-08-05T11:11:27Z</time>
      </trkpt>
      <trkpt lat="44.61798" lon="2.16813">
        <ele>342.35</ele>
        <time>2015-08-05T11:11:47Z</time>
      </trkpt>
      <trkpt lat="44.61861" lon="2.16832">
        <ele>346.815</ele>
        <time>2015-08-05T11:12:07Z</time>
      </trkpt>
      <trkpt lat="44.61899" lon="2.16838">
        <ele>347.235</ele>
        <time>2015-08-05T11:12:27Z</time>
      </trkpt>
      <trkpt lat="44.6193" lon="2.1686">
        <ele>345.667</ele>
        <time>2015-08-05T11:12:47Z</time>
      </trkpt>
      <trkpt lat="44.61922" lon="2.16893">
        <ele>346.359</ele>
        <time>2015-08-05T11:13:07Z</time>
      </trkpt>
      <trkpt lat="44.61906" lon="2.17068">
        <ele>352.67</ele>
        <time>2015-08-05T11:13:27Z</time>
      </trkpt>
      <trkpt lat="44.61922" lon="2.17182">
        <ele>357.646</ele>
        <time>2015-08-05T11:13:47Z</time>
      </trkpt>
      <trkpt lat="44.61993" lon="2.1739">
        <ele>365.868</ele>
        <time>2015-08-05T11:14:07Z</time>
      </trkpt>
      <trkpt lat="44.61996" lon="2.17435">
        <ele>368.396</ele>
        <time>2015-08-05T11:14:27Z</time>
      </trkpt>
      <trkpt lat="44.61919" lon="2.176">
        <ele>377.431</ele>
        <time>2015-08-05T11:14:47Z</time>
      </trkpt>
      <trkpt lat="44.61896" lon="2.1761">
        <ele>377.224</ele>
        <time>2015-08-05T11:15:07Z</time>
      </trkpt>
      <trkpt lat="44.61886" lon="2.17672">
        <ele>377.708</ele>
        <time>2015-08-05T11:15:27Z</time>
      </trkpt>
      <trkpt lat="44.61871" lon="2.17694">
        <ele>376.445</ele>
        <time>2015-08-05T11:15:47Z</time>
      </trkpt>
      <trkpt lat="44.61871" lon="2.17724">
        <ele>375.78</ele>
        <time>2015-08-05T11:16:07Z</time>
      </trkpt>
      <trkpt lat="44.61846" lon="2.17768">
        <ele>374.97</ele>
        <time>2015-08-05T11:16:27Z</time>
      </trkpt>
      <trkpt lat="44.61829" lon="2.17778">
        <ele>375.292</ele>
        <time>2015-08-05T11:16:47Z</time>
      </trkpt>
      <trkpt lat="44.61788" lon="2.17776">
        <ele>378.854</ele>
        <time>2015-08-05T11:17:07Z</time>
      </trkpt>
      <trkpt lat="44.61715" lon="2.17915">
        <ele>390.495</ele>
        <time>2015-08-05T11:17:27Z</time>
      </trkpt>
      <trkpt lat="44.61682" lon="2.1801">
        <ele>390.581</ele>
        <time>2015-08-05T11:17:47Z</time>
      </trkpt>
      <trkpt lat="44.61683" lon="2.18036">
        <ele>388.113</ele>
        <time>2015-08-05T11:18:07Z</time>
      </trkpt>
      <trkpt lat="44.61801" lon="2.1814">
        <ele>385.766</ele>
        <time>2015-08-05T11:18:27Z</time>
      </trkpt>
      <trkpt lat="44.61884" lon="2.18152">
        <ele>382.029</ele>
        <time>2015-08-05T11:18:47Z</time>
      </trkpt>
      <trkpt lat="44.61915" lon="2.18168">
        <ele>379.021</ele>
        <time>2015-08-05T11:19:07Z</time>
      </trkpt>
      <trkpt lat="44.61934" lon="2.18201">
        <ele>379.608</ele>
        <time>2015-08-05T11:19:27Z</time>
      </trkpt>
      <trkpt lat="44.61919" lon="2.18284">
        <ele>375.622</ele>
        <time>2015-08-05T11:19:47Z</time>
      </trkpt>
      <trkpt lat="44.61912" lon="2.18594">
        <ele>360.017</ele>
        <time>2015-08-05T11:20:07Z</time>
      </trkpt>
      <trkpt lat="44.61914" lon="2.18666">
        <ele>363.997</ele>
        <time>2015-08-05T11:20:27Z</time>
      </trkpt>
      <trkpt lat="44.61896" lon="2.1873">
        <ele>366.569</ele>
        <time>2015-08-05T11:20:47Z</time>
      </trkpt>
      <trkpt lat="44.61863" lon="2.1877">
        <ele>372.551</ele>
        <time>2015-08-05T11:21:07Z</time>
      </trkpt>
      <trkpt lat="44.61834" lon="2.18781">
        <ele>374.692</ele>
        <time>2015-08-05T11:21:27Z</time>
      </trkpt>
      <trkpt lat="44.61749" lon="2.1878">
        <ele>389.638</ele>
        <time>2015-08-05T11:21:47Z</time>
      </trkpt>
      <trkpt lat="44.61723" lon="2.18798">
        <ele>395.37</ele>
        <time>2015-08-05T11:22:07Z</time>
      </trkpt>
      <trkpt lat="44.61694" lon="2.18855">
        <ele>392.857</ele>
        <time>2015-08-05T11:22:27Z</time>
      </trkpt>
      <trkpt lat="44.61771" lon="2.18996">
        <ele>411.5</ele>
        <time>2015-08-05T11:22:47Z</time>
      </trkpt>
      <trkpt lat="44.61835" lon="2.19049">
        <ele>415.62</ele>
        <time>2015-08-05T11:23:07Z</time>
      </trkpt>
      <trkpt lat="44.61829" lon="2.1909">
        <ele>415.608</ele>
        <time>2015-08-05T11:23:27Z</time>
      </trkpt>
      <trkpt lat="44.61789" lon="2.19183">
        <ele>405.861</ele>
        <time>2015-08-05T11:23:47Z</time>
      </trkpt>
      <trkpt lat="44.61748" lon="2.19238">
        <ele>397.816</ele>
        <time>2015-08-05T11:24:07Z</time>
      </trkpt>
      <trkpt lat="44.61706" lon="2.19267">
        <ele>396.846</ele>
        <time>2015-08-05T11:24:27Z</time>
      </trkpt>
    </trkseg>
  </trk>
</gpx>